Callander, Canada
Current Conditions -  °F | °C
As of 12:00 PM on Thursday 23 Oct 2014 (Local Time) from CYYB Reporting Station
Clear Clear  
Wind Chill: 11°   Ceiling: Unl
Heat Index: 11°   Visibility: 15mi
Dew Point:   Wind: 5mph
Humidity: 54%   Direction: 30°NNE
Pressure: 30.18"   Gusts: NA
Location:  46.22°N, 79.36°W
Report Text: CYYB 231600Z 03004KT 320V120 15SM SKC 11/02 A3018 RMK SLP230
Loading
Personal Weather Stations






























Interactive Weather Map
Tropical Storm Tracking
New forecast layout! Learn more

10-Day Weather Forecast

Advertisements
Track Severe Weather on mobile